Aviation Digital Data Service (ADDS)

Output produced by METARs form (2159 UTC 16 February 2019)
found at http://www.aviationweather.gov/metar/data/
 
METAR text: SLVR 162100Z 18003KT 9999 FEW020 BKN080 32/18 Q1010
Conditions at: SLVR (VIRU VIRU INTL A, BO) observed 2100 UTC 16 February 2019
Temperature: 32.0°C (90°F)
Dewpoint: 18.0°C (64°F) [RH = 43%]
Pressure (altimeter): 29.82 inches Hg (1010.0 mb)
Winds: from the S (180 degrees) at 3 MPH (3 knots; 1.5 m/s)
Visibility: 6 or more miles (10+ km)
Ceiling: 8000 feet AGL
Clouds: few clouds at 2000 feet AGL
broken clouds at 8000 feet AGL
Weather: no significant weather observed at this time

METAR text: SLVR 162000Z 19006KT 9999 FEW020 BKN080 33/17 Q1010
Conditions at: SLVR (VIRU VIRU INTL A, BO) observed 2000 UTC 16 February 2019
Temperature: 33.0°C (91°F)
Dewpoint: 17.0°C (63°F) [RH = 39%]
Pressure (altimeter): 29.82 inches Hg (1010.0 mb)
Winds: from the S (190 degrees) at 7 MPH (6 knots; 3.1 m/s)
Visibility: 6 or more miles (10+ km)
Ceiling: 8000 feet AGL
Clouds: few clouds at 2000 feet AGL
broken clouds at 8000 feet AGL
Weather: no significant weather observed at this time

METAR text: SLVR 161900Z 18005KT 9999 SCT020 BKN080 33/17 Q1011
Conditions at: SLVR (VIRU VIRU INTL A, BO) observed 1900 UTC 16 February 2019
Temperature: 33.0°C (91°F)
Dewpoint: 17.0°C (63°F) [RH = 39%]
Pressure (altimeter): 29.85 inches Hg (1011.0 mb)
Winds: from the S (180 degrees) at 6 MPH (5 knots; 2.6 m/s)
Visibility: 6 or more miles (10+ km)
Ceiling: 8000 feet AGL
Clouds: scattered clouds at 2000 feet AGL
broken clouds at 8000 feet AGL
Weather: no significant weather observed at this time

METAR text: SLVR 161800Z 18009KT 9999 SCT020 BKN080 BKN200 33/16 Q1012
Conditions at: SLVR (VIRU VIRU INTL A, BO) observed 1800 UTC 16 February 2019
Temperature: 33.0°C (91°F)
Dewpoint: 16.0°C (61°F) [RH = 36%]
Pressure (altimeter): 29.88 inches Hg (1012.0 mb)
Winds: from the S (180 degrees) at 10 MPH (9 knots; 4.6 m/s)
Visibility: 6 or more miles (10+ km)
Ceiling: 8000 feet AGL
Clouds: scattered clouds at 2000 feet AGL
broken clouds at 8000 feet AGL
broken clouds at 20000 feet AGL
Weather: no significant weather observed at this time

METAR text: SLVR 161700Z 17006KT 9999 SCT020 BKN200 32/17 Q1014
Conditions at: SLVR (VIRU VIRU INTL A, BO) observed 1700 UTC 16 February 2019
Temperature: 32.0°C (90°F)
Dewpoint: 17.0°C (63°F) [RH = 41%]
Pressure (altimeter): 29.94 inches Hg (1014.0 mb)
Winds: from the S (170 degrees) at 7 MPH (6 knots; 3.1 m/s)
Visibility: 6 or more miles (10+ km)
Ceiling: 20000 feet AGL
Clouds: scattered clouds at 2000 feet AGL
broken clouds at 20000 feet AGL
Weather: no significant weather observed at this time

METAR text: SLVR 161600Z 15004KT 9999 FEW020 BKN200 32/18 Q1014
Conditions at: SLVR (VIRU VIRU INTL A, BO) observed 1600 UTC 16 February 2019
Temperature: 32.0°C (90°F)
Dewpoint: 18.0°C (64°F) [RH = 43%]
Pressure (altimeter): 29.94 inches Hg (1014.0 mb)
Winds: from the SSE (150 degrees) at 5 MPH (4 knots; 2.1 m/s)
Visibility: 6 or more miles (10+ km)
Ceiling: 20000 feet AGL
Clouds: few clouds at 2000 feet AGL
broken clouds at 20000 feet AGL
Weather: no significant weather observed at this time

METAR text: SLVR 161500Z 17007KT 9999 FEW020 BKN200 31/19 Q1015
Conditions at: SLVR (VIRU VIRU INTL A, BO) observed 1500 UTC 16 February 2019
Temperature: 31.0°C (88°F)
Dewpoint: 19.0°C (66°F) [RH = 49%]
Pressure (altimeter): 29.97 inches Hg (1015.0 mb)
Winds: from the S (170 degrees) at 8 MPH (7 knots; 3.6 m/s)
Visibility: 6 or more miles (10+ km)
Ceiling: 20000 feet AGL
Clouds: few clouds at 2000 feet AGL
broken clouds at 20000 feet AGL
Weather: no significant weather observed at this time

METAR text: SLVR 161400Z 16009KT 9999 NSC 29/18 Q1015
Conditions at: SLVR (VIRU VIRU INTL A, BO) observed 1400 UTC 16 February 2019
Temperature: 29.0°C (84°F)
Dewpoint: 18.0°C (64°F) [RH = 52%]
Pressure (altimeter): 29.97 inches Hg (1015.0 mb)
Winds: from the SSE (160 degrees) at 10 MPH (9 knots; 4.6 m/s)
Visibility: 6 or more miles (10+ km)
Ceiling: at least 12,000 feet AGL
Clouds: sky clear below 12,000 feet AGL
Weather: no significant weather observed at this time

METAR text: SLVR 161300Z 18007KT 9999 FEW070 BKN200 28/18 Q1015
Conditions at: SLVR (VIRU VIRU INTL A, BO) observed 1300 UTC 16 February 2019
Temperature: 28.0°C (82°F)
Dewpoint: 18.0°C (64°F) [RH = 55%]
Pressure (altimeter): 29.97 inches Hg (1015.0 mb)
Winds: from the S (180 degrees) at 8 MPH (7 knots; 3.6 m/s)
Visibility: 6 or more miles (10+ km)
Ceiling: 20000 feet AGL
Clouds: few clouds at 7000 feet AGL
broken clouds at 20000 feet AGL
Weather: no significant weather observed at this time

METAR text: SLVR 161200Z 18007KT 9999 FEW070 BKN200 27/19 Q1015
Conditions at: SLVR (VIRU VIRU INTL A, BO) observed 1200 UTC 16 February 2019
Temperature: 27.0°C (81°F)
Dewpoint: 19.0°C (66°F) [RH = 62%]
Pressure (altimeter): 29.97 inches Hg (1015.0 mb)
Winds: from the S (180 degrees) at 8 MPH (7 knots; 3.6 m/s)
Visibility: 6 or more miles (10+ km)
Ceiling: 20000 feet AGL
Clouds: few clouds at 7000 feet AGL
broken clouds at 20000 feet AGL
Weather: no significant weather observed at this time

METAR text: SLVR 161100Z 18005KT 9999 SCT070 BKN200 24/20 Q1014
Conditions at: SLVR (VIRU VIRU INTL A, BO) observed 1100 UTC 16 February 2019
Temperature: 24.0°C (75°F)
Dewpoint: 20.0°C (68°F) [RH = 78%]
Pressure (altimeter): 29.94 inches Hg (1014.0 mb)
Winds: from the S (180 degrees) at 6 MPH (5 knots; 2.6 m/s)
Visibility: 6 or more miles (10+ km)
Ceiling: 20000 feet AGL
Clouds: scattered clouds at 7000 feet AGL
broken clouds at 20000 feet AGL
Weather: no significant weather observed at this time

METAR text: SLVR 161000Z 21004KT 9999 FEW015 SCT070 BKN200 23/20 Q1013
Conditions at: SLVR (VIRU VIRU INTL A, BO) observed 1000 UTC 16 February 2019
Temperature: 23.0°C (73°F)
Dewpoint: 20.0°C (68°F) [RH = 83%]
Pressure (altimeter): 29.91 inches Hg (1013.0 mb)
Winds: from the SSW (210 degrees) at 5 MPH (4 knots; 2.1 m/s)
Visibility: 6 or more miles (10+ km)
Ceiling: 20000 feet AGL
Clouds: few clouds at 1500 feet AGL
scattered clouds at 7000 feet AGL
broken clouds at 20000 feet AGL
Weather: no significant weather observed at this time

METAR text: SLVR 160900Z 21003KT 9999 BKN070 BKN200 23/22 Q1012
Conditions at: SLVR (VIRU VIRU INTL A, BO) observed 0900 UTC 16 February 2019
Temperature: 23.0°C (73°F)
Dewpoint: 22.0°C (72°F) [RH = 94%]
Pressure (altimeter): 29.88 inches Hg (1012.0 mb)
Winds: from the SSW (210 degrees) at 3 MPH (3 knots; 1.5 m/s)
Visibility: 6 or more miles (10+ km)
Ceiling: 7000 feet AGL
Clouds: broken clouds at 7000 feet AGL
broken clouds at 20000 feet AGL
Weather: no significant weather observed at this time

METAR text: SLVR 160800Z 00000KT 9999 BKN070 BKN200 23/23 Q1013
Conditions at: SLVR (VIRU VIRU INTL A, BO) observed 0800 UTC 16 February 2019
Temperature: 23.0°C (73°F)
Dewpoint: 23.0°C (73°F) [RH = 100%]
Pressure (altimeter): 29.91 inches Hg (1013.0 mb)
Winds: calm
Visibility: 6 or more miles (10+ km)
Ceiling: 7000 feet AGL
Clouds: broken clouds at 7000 feet AGL
broken clouds at 20000 feet AGL
Weather: no significant weather observed at this time

METAR text: SLVR 160700Z 26003KT 9999 BKN070 BKN200 24/23 Q1013
Conditions at: SLVR (VIRU VIRU INTL A, BO) observed 0700 UTC 16 February 2019
Temperature: 24.0°C (75°F)
Dewpoint: 23.0°C (73°F) [RH = 94%]
Pressure (altimeter): 29.91 inches Hg (1013.0 mb)
Winds: from the W (260 degrees) at 3 MPH (3 knots; 1.5 m/s)
Visibility: 6 or more miles (10+ km)
Ceiling: 7000 feet AGL
Clouds: broken clouds at 7000 feet AGL
broken clouds at 20000 feet AGL
Weather: no significant weather observed at this time

METAR text: SLVR 160600Z 27003KT 9999 SCT070 BKN200 24/23 Q1014
Conditions at: SLVR (VIRU VIRU INTL A, BO) observed 0600 UTC 16 February 2019
Temperature: 24.0°C (75°F)
Dewpoint: 23.0°C (73°F) [RH = 94%]
Pressure (altimeter): 29.94 inches Hg (1014.0 mb)
Winds: from the W (270 degrees) at 3 MPH (3 knots; 1.5 m/s)
Visibility: 6 or more miles (10+ km)
Ceiling: 20000 feet AGL
Clouds: scattered clouds at 7000 feet AGL
broken clouds at 20000 feet AGL
Weather: no significant weather observed at this time

METAR text: SLVR 160500Z VRB02KT 9999 SCT070 BKN200 24/23 Q1014
Conditions at: SLVR (VIRU VIRU INTL A, BO) observed 0500 UTC 16 February 2019
Temperature: 24.0°C (75°F)
Dewpoint: 23.0°C (73°F) [RH = 94%]
Pressure (altimeter): 29.94 inches Hg (1014.0 mb)
Winds: variable direction winds at 2 MPH (2 knots; 1.0 m/s)
Visibility: 6 or more miles (10+ km)
Ceiling: 20000 feet AGL
Clouds: scattered clouds at 7000 feet AGL
broken clouds at 20000 feet AGL
Weather: no significant weather observed at this time

METAR text: SLVR 160400Z 27003KT 9999 SCT070 BKN200 24/23 Q1014
Conditions at: SLVR (VIRU VIRU INTL A, BO) observed 0400 UTC 16 February 2019
Temperature: 24.0°C (75°F)
Dewpoint: 23.0°C (73°F) [RH = 94%]
Pressure (altimeter): 29.94 inches Hg (1014.0 mb)
Winds: from the W (270 degrees) at 3 MPH (3 knots; 1.5 m/s)
Visibility: 6 or more miles (10+ km)
Ceiling: 20000 feet AGL
Clouds: scattered clouds at 7000 feet AGL
broken clouds at 20000 feet AGL
Weather: no significant weather observed at this time

METAR text: SLVR 160300Z 29004KT 9999 FEW070 SCT200 24/23 Q1014
Conditions at: SLVR (VIRU VIRU INTL A, BO) observed 0300 UTC 16 February 2019
Temperature: 24.0°C (75°F)
Dewpoint: 23.0°C (73°F) [RH = 94%]
Pressure (altimeter): 29.94 inches Hg (1014.0 mb)
Winds: from the WNW (290 degrees) at 5 MPH (4 knots; 2.1 m/s)
Visibility: 6 or more miles (10+ km)
Ceiling: at least 12,000 feet AGL
Clouds: few clouds at 7000 feet AGL
scattered clouds at 20000 feet AGL
Weather: no significant weather observed at this time

METAR text: SLVR 160200Z 26003KT 9999 SCT070 24/24 Q1013
Conditions at: SLVR (VIRU VIRU INTL A, BO) observed 0200 UTC 16 February 2019
Temperature: 24.0°C (75°F)
Dewpoint: 24.0°C (75°F) [RH = 100%]
Pressure (altimeter): 29.91 inches Hg (1013.0 mb)
Winds: from the W (260 degrees) at 3 MPH (3 knots; 1.5 m/s)
Visibility: 6 or more miles (10+ km)
Ceiling: at least 12,000 feet AGL
Clouds: scattered clouds at 7000 feet AGL
Weather: no significant weather observed at this time

METAR text: SLVR 160100Z 27003KT 9999 SCT070 25/24 Q1013
Conditions at: SLVR (VIRU VIRU INTL A, BO) observed 0100 UTC 16 February 2019
Temperature: 25.0°C (77°F)
Dewpoint: 24.0°C (75°F) [RH = 94%]
Pressure (altimeter): 29.91 inches Hg (1013.0 mb)
Winds: from the W (270 degrees) at 3 MPH (3 knots; 1.5 m/s)
Visibility: 6 or more miles (10+ km)
Ceiling: at least 12,000 feet AGL
Clouds: scattered clouds at 7000 feet AGL
Weather: no significant weather observed at this time

METAR text: SLVR 160000Z 30004KT 9999 FEW023 BKN070 27/23 Q1012
Conditions at: SLVR (VIRU VIRU INTL A, BO) observed 0000 UTC 16 February 2019
Temperature: 27.0°C (81°F)
Dewpoint: 23.0°C (73°F) [RH = 79%]
Pressure (altimeter): 29.88 inches Hg (1012.0 mb)
Winds: from the WNW (300 degrees) at 5 MPH (4 knots; 2.1 m/s)
Visibility: 6 or more miles (10+ km)
Ceiling: 7000 feet AGL
Clouds: few clouds at 2300 feet AGL
broken clouds at 7000 feet AGL
Weather: no significant weather observed at this time

METAR text: SLVR 152300Z 31003KT 9999 FEW023 BKN070 28/22 Q1011
Conditions at: SLVR (VIRU VIRU INTL A, BO) observed 2300 UTC 15 February 2019
Temperature: 28.0°C (82°F)
Dewpoint: 22.0°C (72°F) [RH = 70%]
Pressure (altimeter): 29.85 inches Hg (1011.0 mb)
Winds: from the NW (310 degrees) at 3 MPH (3 knots; 1.5 m/s)
Visibility: 6 or more miles (10+ km)
Ceiling: 7000 feet AGL
Clouds: few clouds at 2300 feet AGL
broken clouds at 7000 feet AGL
Weather: no significant weather observed at this time

METAR text: SLVR 152200Z 15002KT 9999 FEW023 BKN070 29/21 Q1011
Conditions at: SLVR (VIRU VIRU INTL A, BO) observed 2200 UTC 15 February 2019
Temperature: 29.0°C (84°F)
Dewpoint: 21.0°C (70°F) [RH = 62%]
Pressure (altimeter): 29.85 inches Hg (1011.0 mb)
Winds: from the SSE (150 degrees) at 2 MPH (2 knots; 1.0 m/s)
Visibility: 6 or more miles (10+ km)
Ceiling: 7000 feet AGL
Clouds: few clouds at 2300 feet AGL
broken clouds at 7000 feet AGL
Weather: no significant weather observed at this time

METAR text: SLVR 152100Z 15004KT 9999 SCT023 BKN070 29/21 Q1011
Conditions at: SLVR (VIRU VIRU INTL A, BO) observed 2100 UTC 15 February 2019
Temperature: 29.0°C (84°F)
Dewpoint: 21.0°C (70°F) [RH = 62%]
Pressure (altimeter): 29.85 inches Hg (1011.0 mb)
Winds: from the SSE (150 degrees) at 5 MPH (4 knots; 2.1 m/s)
Visibility: 6 or more miles (10+ km)
Ceiling: 7000 feet AGL
Clouds: scattered clouds at 2300 feet AGL
broken clouds at 7000 feet AGL
Weather: no significant weather observed at this time

METAR text: SLVR 152000Z 15004KT 9999 FEW017 SCT023 OVC070 29/21 Q1011
Conditions at: SLVR (VIRU VIRU INTL A, BO) observed 2000 UTC 15 February 2019
Temperature: 29.0°C (84°F)
Dewpoint: 21.0°C (70°F) [RH = 62%]
Pressure (altimeter): 29.85 inches Hg (1011.0 mb)
Winds: from the SSE (150 degrees) at 5 MPH (4 knots; 2.1 m/s)
Visibility: 6 or more miles (10+ km)
Ceiling: 7000 feet AGL
Clouds: few clouds at 1700 feet AGL
scattered clouds at 2300 feet AGL
overcast cloud deck at 7000 feet AGL
Weather: no significant weather observed at this time

METAR text: SLVR 151900Z VRB02KT 9999 FEW017 SCT023 OVC070 30/22 Q1012
Conditions at: SLVR (VIRU VIRU INTL A, BO) observed 1900 UTC 15 February 2019
Temperature: 30.0°C (86°F)
Dewpoint: 22.0°C (72°F) [RH = 62%]
Pressure (altimeter): 29.88 inches Hg (1012.0 mb)
Winds: variable direction winds at 2 MPH (2 knots; 1.0 m/s)
Visibility: 6 or more miles (10+ km)
Ceiling: 7000 feet AGL
Clouds: few clouds at 1700 feet AGL
scattered clouds at 2300 feet AGL
overcast cloud deck at 7000 feet AGL
Weather: no significant weather observed at this time

METAR text: SLVR 151800Z VRB02KT 9999 FEW017 SCT023 OVC070 29/21 Q1013
Conditions at: SLVR (VIRU VIRU INTL A, BO) observed 1800 UTC 15 February 2019
Temperature: 29.0°C (84°F)
Dewpoint: 21.0°C (70°F) [RH = 62%]
Pressure (altimeter): 29.91 inches Hg (1013.0 mb)
Winds: variable direction winds at 2 MPH (2 knots; 1.0 m/s)
Visibility: 6 or more miles (10+ km)
Ceiling: 7000 feet AGL
Clouds: few clouds at 1700 feet AGL
scattered clouds at 2300 feet AGL
overcast cloud deck at 7000 feet AGL
Weather: no significant weather observed at this time

METAR text: SLVR 151700Z VRB02KT 9999 FEW020 SCT027 OVC070 28/21 Q1015
Conditions at: SLVR (VIRU VIRU INTL A, BO) observed 1700 UTC 15 February 2019
Temperature: 28.0°C (82°F)
Dewpoint: 21.0°C (70°F) [RH = 66%]
Pressure (altimeter): 29.97 inches Hg (1015.0 mb)
Winds: variable direction winds at 2 MPH (2 knots; 1.0 m/s)
Visibility: 6 or more miles (10+ km)
Ceiling: 7000 feet AGL
Clouds: few clouds at 2000 feet AGL
scattered clouds at 2700 feet AGL
overcast cloud deck at 7000 feet AGL
Weather: no significant weather observed at this time

METAR text: SLVR 151600Z 16003KT 9999 FEW020 SCT027 OVC070 28/22 Q1015
Conditions at: SLVR (VIRU VIRU INTL A, BO) observed 1600 UTC 15 February 2019
Temperature: 28.0°C (82°F)
Dewpoint: 22.0°C (72°F) [RH = 70%]
Pressure (altimeter): 29.97 inches Hg (1015.0 mb)
Winds: from the SSE (160 degrees) at 3 MPH (3 knots; 1.5 m/s)
Visibility: 6 or more miles (10+ km)
Ceiling: 7000 feet AGL
Clouds: few clouds at 2000 feet AGL
scattered clouds at 2700 feet AGL
overcast cloud deck at 7000 feet AGL
Weather: no significant weather observed at this time

METAR text: SLVR 151500Z 15004KT 9999 BKN027 OVC070 26/21 Q1015
Conditions at: SLVR (VIRU VIRU INTL A, BO) observed 1500 UTC 15 February 2019
Temperature: 26.0°C (79°F)
Dewpoint: 21.0°C (70°F) [RH = 74%]
Pressure (altimeter): 29.97 inches Hg (1015.0 mb)
Winds: from the SSE (150 degrees) at 5 MPH (4 knots; 2.1 m/s)
Visibility: 6 or more miles (10+ km)
Ceiling: 2700 feet AGL
Clouds: broken clouds at 2700 feet AGL
overcast cloud deck at 7000 feet AGL
Weather: no significant weather observed at this time

METAR text: SLVR 151400Z 14005KT 9999 BKN025 OVC070 26/22 Q1016
Conditions at: SLVR (VIRU VIRU INTL A, BO) observed 1400 UTC 15 February 2019
Temperature: 26.0°C (79°F)
Dewpoint: 22.0°C (72°F) [RH = 79%]
Pressure (altimeter): 30.00 inches Hg (1016.0 mb)
Winds: from the SE (140 degrees) at 6 MPH (5 knots; 2.6 m/s)
Visibility: 6 or more miles (10+ km)
Ceiling: 2500 feet AGL
Clouds: broken clouds at 2500 feet AGL
overcast cloud deck at 7000 feet AGL
Weather: no significant weather observed at this time

METAR text: SLVR 151300Z 15005KT 8000 -DZ BKN025 OVC070 24/21 Q1016
Conditions at: SLVR (VIRU VIRU INTL A, BO) observed 1300 UTC 15 February 2019
Temperature: 24.0°C (75°F)
Dewpoint: 21.0°C (70°F) [RH = 83%]
Pressure (altimeter): 30.00 inches Hg (1016.0 mb)
Winds: from the SSE (150 degrees) at 6 MPH (5 knots; 2.6 m/s)
Visibility: 5 miles ( 8 km)
Ceiling: 2500 feet AGL
Clouds: broken clouds at 2500 feet AGL
overcast cloud deck at 7000 feet AGL
Weather: -DZ  (light drizzle)

METAR text: SLVR 151200Z 17005KT 8000 -DZ BKN025 OVC070 23/21 Q1015
Conditions at: SLVR (VIRU VIRU INTL A, BO) observed 1200 UTC 15 February 2019
Temperature: 23.0°C (73°F)
Dewpoint: 21.0°C (70°F) [RH = 89%]
Pressure (altimeter): 29.97 inches Hg (1015.0 mb)
Winds: from the S (170 degrees) at 6 MPH (5 knots; 2.6 m/s)
Visibility: 5 miles ( 8 km)
Ceiling: 2500 feet AGL
Clouds: broken clouds at 2500 feet AGL
overcast cloud deck at 7000 feet AGL
Weather: -DZ  (light drizzle)

METAR text: SLVR 151140Z 18006KT 6000 -DZ BKN025 OVC070 23/21 Q1015
Conditions at: SLVR (VIRU VIRU INTL A, BO) observed 1140 UTC 15 February 2019
Temperature: 23.0°C (73°F)
Dewpoint: 21.0°C (70°F) [RH = 89%]
Pressure (altimeter): 29.97 inches Hg (1015.0 mb)
Winds: from the S (180 degrees) at 7 MPH (6 knots; 3.1 m/s)
Visibility: 4 miles ( 6 km)
Ceiling: 2500 feet AGL
Clouds: broken clouds at 2500 feet AGL
overcast cloud deck at 7000 feet AGL
Weather: -DZ  (light drizzle)

METAR text: SLVR 151100Z 19006KT 9999 BKN025 BKN070 23/20 Q1014
Conditions at: SLVR (VIRU VIRU INTL A, BO) observed 1100 UTC 15 February 2019
Temperature: 23.0°C (73°F)
Dewpoint: 20.0°C (68°F) [RH = 83%]
Pressure (altimeter): 29.94 inches Hg (1014.0 mb)
Winds: from the S (190 degrees) at 7 MPH (6 knots; 3.1 m/s)
Visibility: 6 or more miles (10+ km)
Ceiling: 2500 feet AGL
Clouds: broken clouds at 2500 feet AGL
broken clouds at 7000 feet AGL
Weather: no significant weather observed at this time

METAR text: SLVR 151000Z 18006KT 9999 SCT020 BKN070 BKN200 23/20 Q1013
Conditions at: SLVR (VIRU VIRU INTL A, BO) observed 1000 UTC 15 February 2019
Temperature: 23.0°C (73°F)
Dewpoint: 20.0°C (68°F) [RH = 83%]
Pressure (altimeter): 29.91 inches Hg (1013.0 mb)
Winds: from the S (180 degrees) at 7 MPH (6 knots; 3.1 m/s)
Visibility: 6 or more miles (10+ km)
Ceiling: 7000 feet AGL
Clouds: scattered clouds at 2000 feet AGL
broken clouds at 7000 feet AGL
broken clouds at 20000 feet AGL
Weather: no significant weather observed at this time

Forecast for: COR
Text: TAF COR SLVR 161600Z 1618/1718 VRB02KT 9999 FEW023 TX34/1619Z TN22/1710Z
Forecast period: 1800 UTC 16 February 2019 to 0200 UTC 17 February 2019
Forecast type: FROM: standard forecast or significant change
Winds: variable direction winds at 2 MPH (2 knots; 1.0 m/s)
Visibility: 6 or more miles 10+ km)
Ceiling: at least 12,000 feet AGL
Clouds: few clouds at 2300 feet AGL
Weather: no significant weather forecast for this period
Text: BECMG 1702/1704 16005KT NSC
Forecast period: 0200 to 1500 UTC 17 February 2019
Forecast type: BECOMING: Conditions expected to become as follows by 0400 UTC 17 February 2019
Winds: from the SSE (160 degrees) at 6 MPH (5 knots; 2.6 m/s)
Visibility: 6 or more miles 10+ km)
Ceiling: unknown
Clouds: missing
Weather: no significant weather forecast for this period
Text: BECMG 1715/1717 VRB02KT SCT023
Forecast period: 1500 to 1800 UTC 17 February 2019
Forecast type: BECOMING: Conditions expected to become as follows by 1700 UTC 17 February 2019
Winds: variable direction winds at 2 MPH (2 knots; 1.0 m/s)
Visibility: 6 or more miles 10+ km)
Ceiling: at least 12,000 feet AGL
Clouds: scattered clouds at 2300 feet AGL
scattered clouds at 2700 feet AGL
few clouds at 3000 feet AGL
Weather: no significant weather forecast for this period
Text:
Forecast period: 1900 to 2100 UTC 16 February 2019
Forecast type: TEMPORARY: The following changes expected for less than half the time period
Winds: from the ESE (120 degrees) at 17 MPH (15 knots; 7.7 m/s)
Visibility: missing
Ceiling: unknown
Clouds: missing
Weather: no significant weather forecast for this period
Text:
Forecast period: 0300 to 0500 UTC 17 February 2019
Forecast type: TEMPORARY: The following changes expected for less than half the time period
Winds: calm
Visibility: 5 miles (8 km)
Ceiling: 7000 feet AGL
Clouds: few clouds at 1000 feet AGL
scattered clouds at 2300 feet AGL
broken clouds at 7000 feet AGL
Weather: RA  (moderate rain)
Text:
Forecast period: 1000 to 1800 UTC 17 February 2019
Forecast type: BECOMING: Conditions expected to become as follows by 1200 UTC 17 February 2019
Winds: variable direction winds at 2 MPH (2 knots; 1.0 m/s)
Visibility: 6 or more miles 10+ km)
Ceiling: 7000 feet AGL
Clouds: scattered clouds at 1000 feet AGL
scattered clouds at 2500 feet AGL
broken clouds at 7000 feet AGL
Weather: no significant weather forecast for this period